sensor_id;sensor_type;location;lat;lon;timestamp;P1;durP1;ratioP1;P2;durP2;ratioP2
19951;SDS011;10137;49.406;19.484;2023-08-17T00:00:46;11.90;;;7.63;;
19951;SDS011;10137;49.406;19.484;2023-08-17T00:03:15;8.65;;;7.28;;
19951;SDS011;10137;49.406;19.484;2023-08-17T00:05:45;11.45;;;7.28;;
19951;SDS011;10137;49.406;19.484;2023-08-17T00:08:14;11.45;;;7.00;;
19951;SDS011;10137;49.406;19.484;2023-08-17T00:10:42;8.50;;;6.93;;
19951;SDS011;10137;49.406;19.484;2023-08-17T00:13:10;11.18;;;7.57;;
19951;SDS011;10137;49.406;19.484;2023-08-17T00:15:38;10.93;;;7.05;;
19951;SDS011;10137;49.406;19.484;2023-08-17T00:18:07;10.85;;;7.38;;
19951;SDS011;10137;49.406;19.484;2023-08-17T00:20:36;9.18;;;7.18;;
19951;SDS011;10137;49.406;19.484;2023-08-17T00:23:05;9.80;;;6.90;;
19951;SDS011;10137;49.406;19.484;2023-08-17T00:25:36;8.30;;;6.25;;
19951;SDS011;10137;49.406;19.484;2023-08-17T00:28:04;11.90;;;7.13;;
19951;SDS011;10137;49.406;19.484;2023-08-17T00:30:33;9.88;;;7.40;;
19951;SDS011;10137;49.406;19.484;2023-08-17T00:33:02;9.55;;;7.10;;
19951;SDS011;10137;49.406;19.484;2023-08-17T00:35:33;10.82;;;7.40;;
19951;SDS011;10137;49.406;19.484;2023-08-17T00:38:14;10.95;;;7.13;;
19951;SDS011;10137;49.406;19.484;2023-08-17T00:40:42;7.95;;;6.88;;
19951;SDS011;10137;49.406;19.484;2023-08-17T00:43:10;10.23;;;7.70;;
19951;SDS011;10137;49.406;19.484;2023-08-17T00:45:39;9.43;;;6.95;;
19951;SDS011;10137;49.406;19.484;2023-08-17T00:48:08;13.13;;;7.00;;
19951;SDS011;10137;49.406;19.484;2023-08-17T00:50:38;10.27;;;6.60;;
19951;SDS011;10137;49.406;19.484;2023-08-17T00:53:07;12.32;;;7.13;;
19951;SDS011;10137;49.406;19.484;2023-08-17T00:55:42;7.95;;;6.97;;
19951;SDS011;10137;49.406;19.484;2023-08-17T00:58:11;8.43;;;7.30;;
19951;SDS011;10137;49.406;19.484;2023-08-17T01:00:40;9.23;;;7.40;;
19951;SDS011;10137;49.406;19.484;2023-08-17T01:03:08;10.30;;;7.78;;
19951;SDS011;10137;49.406;19.484;2023-08-17T01:05:36;10.02;;;7.40;;
19951;SDS011;10137;49.406;19.484;2023-08-17T01:08:06;9.68;;;7.70;;
19951;SDS011;10137;49.406;19.484;2023-08-17T01:10:39;11.35;;;8.18;;
19951;SDS011;10137;49.406;19.484;2023-08-17T01:13:15;9.40;;;7.47;;
19951;SDS011;10137;49.406;19.484;2023-08-17T01:15:50;15.55;;;8.00;;
19951;SDS011;10137;49.406;19.484;2023-08-17T01:18:23;10.95;;;7.22;;
19951;SDS011;10137;49.406;19.484;2023-08-17T01:20:55;9.18;;;7.22;;
19951;SDS011;10137;49.406;19.484;2023-08-17T01:23:25;8.65;;;7.15;;
19951;SDS011;10137;49.406;19.484;2023-08-17T01:25:54;9.85;;;6.53;;
19951;SDS011;10137;49.406;19.484;2023-08-17T01:28:23;9.23;;;6.72;;
19951;SDS011;10137;49.406;19.484;2023-08-17T01:30:57;9.95;;;6.70;;
19951;SDS011;10137;49.406;19.484;2023-08-17T01:33:28;11.75;;;6.95;;
19951;SDS011;10137;49.406;19.484;2023-08-17T01:36:04;10.65;;;7.10;;
19951;SDS011;10137;49.406;19.484;2023-08-17T01:38:44;8.88;;;6.43;;
19951;SDS011;10137;49.406;19.484;2023-08-17T01:41:13;9.23;;;6.97;;
19951;SDS011;10137;49.406;19.484;2023-08-17T01:43:42;11.55;;;7.35;;
19951;SDS011;10137;49.406;19.484;2023-08-17T01:46:14;10.10;;;7.05;;
19951;SDS011;10137;49.406;19.484;2023-08-17T01:48:43;9.68;;;7.15;;
19951;SDS011;10137;49.406;19.484;2023-08-17T01:51:16;9.27;;;7.07;;
19951;SDS011;10137;49.406;19.484;2023-08-17T01:53:47;8.32;;;6.60;;
19951;SDS011;10137;49.406;19.484;2023-08-17T01:56:15;8.85;;;7.32;;
19951;SDS011;10137;49.406;19.484;2023-08-17T01:58:43;10.02;;;6.72;;
19951;SDS011;10137;49.406;19.484;2023-08-17T02:01:11;11.93;;;7.50;;
19951;SDS011;10137;49.406;19.484;2023-08-17T02:03:39;9.85;;;7.53;;
19951;SDS011;10137;49.406;19.484;2023-08-17T02:06:07;10.48;;;6.85;;
19951;SDS011;10137;49.406;19.484;2023-08-17T02:08:36;10.45;;;7.45;;
19951;SDS011;10137;49.406;19.484;2023-08-17T02:11:07;10.57;;;7.32;;
19951;SDS011;10137;49.406;19.484;2023-08-17T02:13:36;9.90;;;7.43;;
19951;SDS011;10137;49.406;19.484;2023-08-17T02:16:05;9.85;;;7.10;;
19951;SDS011;10137;49.406;19.484;2023-08-17T02:18:37;14.05;;;7.30;;
19951;SDS011;10137;49.406;19.484;2023-08-17T02:21:05;9.55;;;7.43;;
19951;SDS011;10137;49.406;19.484;2023-08-17T02:23:35;9.25;;;6.85;;
19951;SDS011;10137;49.406;19.484;2023-08-17T02:26:04;11.38;;;7.63;;
19951;SDS011;10137;49.406;19.484;2023-08-17T02:28:35;10.32;;;7.22;;
19951;SDS011;10137;49.406;19.484;2023-08-17T02:31:03;10.35;;;7.82;;
19951;SDS011;10137;49.406;19.484;2023-08-17T02:33:32;9.98;;;7.07;;
19951;SDS011;10137;49.406;19.484;2023-08-17T02:36:03;9.30;;;6.90;;
19951;SDS011;10137;49.406;19.484;2023-08-17T02:38:31;10.02;;;7.00;;
19951;SDS011;10137;49.406;19.484;2023-08-17T02:40:59;8.77;;;6.90;;
19951;SDS011;10137;49.406;19.484;2023-08-17T02:43:32;9.20;;;7.22;;
19951;SDS011;10137;49.406;19.484;2023-08-17T02:46:02;13.00;;;7.20;;
19951;SDS011;10137;49.406;19.484;2023-08-17T02:48:33;10.15;;;7.47;;
19951;SDS011;10137;49.406;19.484;2023-08-17T02:51:00;11.68;;;7.45;;
19951;SDS011;10137;49.406;19.484;2023-08-17T02:53:28;15.88;;;7.00;;
19951;SDS011;10137;49.406;19.484;2023-08-17T02:55:57;13.00;;;7.63;;
19951;SDS011;10137;49.406;19.484;2023-08-17T02:58:25;10.68;;;7.85;;
19951;SDS011;10137;49.406;19.484;2023-08-17T03:00:57;12.85;;;8.13;;
19951;SDS011;10137;49.406;19.484;2023-08-17T03:03:25;10.73;;;7.72;;
19951;SDS011;10137;49.406;19.484;2023-08-17T03:05:55;12.18;;;7.80;;
19951;SDS011;10137;49.406;19.484;2023-08-17T03:08:23;11.40;;;7.53;;
19951;SDS011;10137;49.406;19.484;2023-08-17T03:10:51;8.90;;;7.70;;
19951;SDS011;10137;49.406;19.484;2023-08-17T03:13:19;9.63;;;7.28;;
19951;SDS011;10137;49.406;19.484;2023-08-17T03:15:50;11.65;;;7.47;;
19951;SDS011;10137;49.406;19.484;2023-08-17T03:18:21;10.82;;;7.25;;
19951;SDS011;10137;49.406;19.484;2023-08-17T03:20:50;10.23;;;7.72;;
19951;SDS011;10137;49.406;19.484;2023-08-17T03:23:19;10.70;;;8.07;;
19951;SDS011;10137;49.406;19.484;2023-08-17T03:25:51;12.07;;;7.85;;
19951;SDS011;10137;49.406;19.484;2023-08-17T03:28:22;12.35;;;7.90;;
19951;SDS011;10137;49.406;19.484;2023-08-17T03:30:54;12.95;;;7.28;;
19951;SDS011;10137;49.406;19.484;2023-08-17T03:33:24;13.23;;;8.07;;
19951;SDS011;10137;49.406;19.484;2023-08-17T03:35:52;15.38;;;8.13;;
19951;SDS011;10137;49.406;19.484;2023-08-17T03:38:20;15.48;;;8.02;;
19951;SDS011;10137;49.406;19.484;2023-08-17T03:40:48;15.15;;;7.35;;
19951;SDS011;10137;49.406;19.484;2023-08-17T03:43:16;10.75;;;7.53;;
19951;SDS011;10137;49.406;19.484;2023-08-17T03:45:44;13.10;;;7.03;;
19951;SDS011;10137;49.406;19.484;2023-08-17T03:48:12;8.77;;;7.28;;
19951;SDS011;10137;49.406;19.484;2023-08-17T03:50:42;9.02;;;6.80;;
19951;SDS011;10137;49.406;19.484;2023-08-17T03:53:09;10.52;;;7.93;;
19951;SDS011;10137;49.406;19.484;2023-08-17T03:55:43;13.27;;;7.88;;
19951;SDS011;10137;49.406;19.484;2023-08-17T03:58:13;12.40;;;7.03;;
19951;SDS011;10137;49.406;19.484;2023-08-17T04:00:48;10.38;;;7.40;;
19951;SDS011;10137;49.406;19.484;2023-08-17T04:03:18;12.35;;;8.13;;
19951;SDS011;10137;49.406;19.484;2023-08-17T04:05:48;12.18;;;7.82;;
19951;SDS011;10137;49.406;19.484;2023-08-17T04:08:16;13.25;;;7.90;;
19951;SDS011;10137;49.406;19.484;2023-08-17T04:10:45;11.38;;;7.20;;
19951;SDS011;10137;49.406;19.484;2023-08-17T04:13:13;13.57;;;6.88;;
19951;SDS011;10137;49.406;19.484;2023-08-17T04:15:43;14.80;;;7.35;;
19951;SDS011;10137;49.406;19.484;2023-08-17T04:18:11;9.82;;;6.88;;
19951;SDS011;10137;49.406;19.484;2023-08-17T04:20:39;15.13;;;7.07;;
19951;SDS011;10137;49.406;19.484;2023-08-17T04:23:09;9.50;;;6.63;;
19951;SDS011;10137;49.406;19.484;2023-08-17T04:25:37;8.48;;;7.05;;
19951;SDS011;10137;49.406;19.484;2023-08-17T04:28:06;9.77;;;7.75;;
19951;SDS011;10137;49.406;19.484;2023-08-17T04:30:37;11.65;;;7.45;;
19951;SDS011;10137;49.406;19.484;2023-08-17T04:33:08;11.18;;;7.30;;
19951;SDS011;10137;49.406;19.484;2023-08-17T04:35:36;11.32;;;8.05;;
19951;SDS011;10137;49.406;19.484;2023-08-17T04:38:04;10.52;;;7.38;;
19951;SDS011;10137;49.406;19.484;2023-08-17T04:40:38;16.88;;;7.70;;
19951;SDS011;10137;49.406;19.484;2023-08-17T04:43:06;12.63;;;8.55;;
19951;SDS011;10137;49.406;19.484;2023-08-17T04:45:33;9.50;;;7.78;;
19951;SDS011;10137;49.406;19.484;2023-08-17T04:48:14;10.02;;;7.35;;
19951;SDS011;10137;49.406;19.484;2023-08-17T04:50:42;10.05;;;7.05;;
19951;SDS011;10137;49.406;19.484;2023-08-17T04:53:10;12.55;;;7.97;;
19951;SDS011;10137;49.406;19.484;2023-08-17T04:55:43;11.38;;;7.68;;
19951;SDS011;10137;49.406;19.484;2023-08-17T04:58:14;12.63;;;7.55;;
19951;SDS011;10137;49.406;19.484;2023-08-17T05:00:47;14.18;;;8.20;;
19951;SDS011;10137;49.406;19.484;2023-08-17T05:03:21;12.75;;;7.85;;
19951;SDS011;10137;49.406;19.484;2023-08-17T05:05:48;15.82;;;7.97;;
19951;SDS011;10137;49.406;19.484;2023-08-17T05:08:17;12.25;;;7.75;;
19951;SDS011;10137;49.406;19.484;2023-08-17T05:10:52;14.70;;;8.13;;
19951;SDS011;10137;49.406;19.484;2023-08-17T05:13:23;10.95;;;8.05;;
19951;SDS011;10137;49.406;19.484;2023-08-17T05:15:54;17.13;;;8.13;;
19951;SDS011;10137;49.406;19.484;2023-08-17T05:18:23;13.55;;;7.80;;
19951;SDS011;10137;49.406;19.484;2023-08-17T05:20:51;15.43;;;8.10;;
19951;SDS011;10137;49.406;19.484;2023-08-17T05:23:19;16.52;;;8.52;;
19951;SDS011;10137;49.406;19.484;2023-08-17T05:25:49;14.88;;;8.20;;
19951;SDS011;10137;49.406;19.484;2023-08-17T05:28:17;15.38;;;8.77;;
19951;SDS011;10137;49.406;19.484;2023-08-17T05:30:48;11.98;;;7.80;;
19951;SDS011;10137;49.406;19.484;2023-08-17T05:33:16;14.32;;;7.97;;
19951;SDS011;10137;49.406;19.484;2023-08-17T05:35:44;12.57;;;8.25;;
19951;SDS011;10137;49.406;19.484;2023-08-17T05:38:12;11.63;;;8.45;;
19951;SDS011;10137;49.406;19.484;2023-08-17T05:40:39;11.27;;;7.90;;
19951;SDS011;10137;49.406;19.484;2023-08-17T05:43:09;14.70;;;8.43;;
19951;SDS011;10137;49.406;19.484;2023-08-17T05:45:37;12.05;;;8.20;;
19951;SDS011;10137;49.406;19.484;2023-08-17T05:48:05;10.13;;;8.10;;
19951;SDS011;10137;49.406;19.484;2023-08-17T05:50:34;19.35;;;8.50;;
19951;SDS011;10137;49.406;19.484;2023-08-17T05:53:02;9.27;;;7.93;;
19951;SDS011;10137;49.406;19.484;2023-08-17T05:55:30;10.65;;;7.70;;
19951;SDS011;10137;49.406;19.484;2023-08-17T05:57:58;12.30;;;8.25;;
19951;SDS011;10137;49.406;19.484;2023-08-17T06:00:28;12.07;;;7.88;;
19951;SDS011;10137;49.406;19.484;2023-08-17T06:02:57;13.63;;;7.60;;
19951;SDS011;10137;49.406;19.484;2023-08-17T06:05:27;12.32;;;8.15;;
19951;SDS011;10137;49.406;19.484;2023-08-17T06:07:55;14.60;;;7.70;;
19951;SDS011;10137;49.406;19.484;2023-08-17T06:10:24;12.40;;;7.97;;
19951;SDS011;10137;49.406;19.484;2023-08-17T06:12:53;12.00;;;7.80;;
19951;SDS011;10137;49.406;19.484;2023-08-17T06:15:21;11.50;;;7.72;;
19951;SDS011;10137;49.406;19.484;2023-08-17T06:17:51;9.35;;;8.00;;
19951;SDS011;10137;49.406;19.484;2023-08-17T06:20:19;12.25;;;7.80;;
19951;SDS011;10137;49.406;19.484;2023-08-17T06:22:47;12.25;;;7.55;;
19951;SDS011;10137;49.406;19.484;2023-08-17T06:25:16;9.52;;;7.63;;
19951;SDS011;10137;49.406;19.484;2023-08-17T06:27:45;11.93;;;7.38;;
19951;SDS011;10137;49.406;19.484;2023-08-17T06:30:18;11.57;;;7.53;;
19951;SDS011;10137;49.406;19.484;2023-08-17T06:32:45;15.02;;;8.63;;
19951;SDS011;10137;49.406;19.484;2023-08-17T06:35:21;19.63;;;8.48;;
19951;SDS011;10137;49.406;19.484;2023-08-17T06:37:49;14.05;;;8.70;;
19951;SDS011;10137;49.406;19.484;2023-08-17T06:40:22;10.85;;;7.68;;
19951;SDS011;10137;49.406;19.484;2023-08-17T06:42:53;14.23;;;8.27;;
19951;SDS011;10137;49.406;19.484;2023-08-17T06:45:21;14.63;;;7.88;;
19951;SDS011;10137;49.406;19.484;2023-08-17T06:47:50;15.70;;;7.80;;
19951;SDS011;10137;49.406;19.484;2023-08-17T06:50:20;13.32;;;8.88;;
19951;SDS011;10137;49.406;19.484;2023-08-17T06:52:48;13.65;;;8.38;;
19951;SDS011;10137;49.406;19.484;2023-08-17T06:55:17;15.50;;;7.95;;
19951;SDS011;10137;49.406;19.484;2023-08-17T06:57:46;10.30;;;7.57;;
19951;SDS011;10137;49.406;19.484;2023-08-17T07:00:15;14.77;;;8.90;;
19951;SDS011;10137;49.406;19.484;2023-08-17T07:02:47;13.90;;;8.07;;
19951;SDS011;10137;49.406;19.484;2023-08-17T07:05:15;9.43;;;7.22;;
19951;SDS011;10137;49.406;19.484;2023-08-17T07:07:46;8.45;;;6.88;;
19951;SDS011;10137;49.406;19.484;2023-08-17T07:10:14;10.13;;;7.30;;
19951;SDS011;10137;49.406;19.484;2023-08-17T07:12:42;9.00;;;6.97;;
19951;SDS011;10137;49.406;19.484;2023-08-17T07:15:10;16.73;;;8.18;;
19951;SDS011;10137;49.406;19.484;2023-08-17T07:17:39;10.00;;;7.07;;
19951;SDS011;10137;49.406;19.484;2023-08-17T07:20:08;12.13;;;7.03;;
19951;SDS011;10137;49.406;19.484;2023-08-17T07:22:36;11.25;;;6.72;;
19951;SDS011;10137;49.406;19.484;2023-08-17T07:25:05;16.27;;;6.65;;
19951;SDS011;10137;49.406;19.484;2023-08-17T07:27:34;10.10;;;6.65;;
19951;SDS011;10137;49.406;19.484;2023-08-17T07:30:06;10.38;;;6.43;;
19951;SDS011;10137;49.406;19.484;2023-08-17T07:32:35;9.35;;;5.57;;
19951;SDS011;10137;49.406;19.484;2023-08-17T07:35:06;10.45;;;5.93;;
19951;SDS011;10137;49.406;19.484;2023-08-17T07:37:35;6.43;;;4.90;;
19951;SDS011;10137;49.406;19.484;2023-08-17T07:40:10;11.48;;;4.85;;
19951;SDS011;10137;49.406;19.484;2023-08-17T07:42:46;11.20;;;4.75;;
19951;SDS011;10137;49.406;19.484;2023-08-17T07:45:13;12.77;;;5.15;;
19951;SDS011;10137;49.406;19.484;2023-08-17T07:47:41;11.35;;;5.45;;
19951;SDS011;10137;49.406;19.484;2023-08-17T07:50:11;7.28;;;5.15;;
19951;SDS011;10137;49.406;19.484;2023-08-17T07:52:39;9.80;;;5.88;;
19951;SDS011;10137;49.406;19.484;2023-08-17T07:55:08;9.40;;;5.85;;
19951;SDS011;10137;49.406;19.484;2023-08-17T07:57:36;8.88;;;5.95;;
19951;SDS011;10137;49.406;19.484;2023-08-17T08:00:05;8.68;;;6.30;;
19951;SDS011;10137;49.406;19.484;2023-08-17T08:02:33;6.35;;;5.18;;
19951;SDS011;10137;49.406;19.484;2023-08-17T08:05:00;6.05;;;4.72;;
19951;SDS011;10137;49.406;19.484;2023-08-17T08:07:27;5.60;;;5.00;;
19951;SDS011;10137;49.406;19.484;2023-08-17T08:09:54;7.28;;;4.45;;
19951;SDS011;10137;49.406;19.484;2023-08-17T08:12:25;6.88;;;4.78;;
19951;SDS011;10137;49.406;19.484;2023-08-17T08:14:52;8.88;;;5.10;;
19951;SDS011;10137;49.406;19.484;2023-08-17T08:17:21;7.38;;;4.70;;
19951;SDS011;10137;49.406;19.484;2023-08-17T08:19:48;12.57;;;5.07;;
19951;SDS011;10137;49.406;19.484;2023-08-17T08:22:16;6.28;;;4.45;;
19951;SDS011;10137;49.406;19.484;2023-08-17T08:24:43;5.97;;;4.88;;
19951;SDS011;10137;49.406;19.484;2023-08-17T08:27:11;6.90;;;4.30;;
19951;SDS011;10137;49.406;19.484;2023-08-17T08:29:45;7.70;;;4.85;;
19951;SDS011;10137;49.406;19.484;2023-08-17T08:32:12;7.70;;;4.43;;
19951;SDS011;10137;49.406;19.484;2023-08-17T08:34:40;12.13;;;4.47;;
19951;SDS011;10137;49.406;19.484;2023-08-17T08:37:07;8.13;;;4.78;;
19951;SDS011;10137;49.406;19.484;2023-08-17T08:39:47;7.70;;;4.90;;
19951;SDS011;10137;49.406;19.484;2023-08-17T08:42:16;7.30;;;4.57;;
19951;SDS011;10137;49.406;19.484;2023-08-17T08:44:45;10.13;;;5.28;;
19951;SDS011;10137;49.406;19.484;2023-08-17T08:47:12;8.40;;;5.35;;
19951;SDS011;10137;49.406;19.484;2023-08-17T08:49:44;8.32;;;4.72;;
19951;SDS011;10137;49.406;19.484;2023-08-17T08:52:19;6.35;;;4.30;;
19951;SDS011;10137;49.406;19.484;2023-08-17T08:54:50;5.47;;;3.92;;
19951;SDS011;10137;49.406;19.484;2023-08-17T08:57:27;6.90;;;4.45;;
19951;SDS011;10137;49.406;19.484;2023-08-17T08:59:57;9.73;;;4.50;;
19951;SDS011;10137;49.406;19.484;2023-08-17T09:02:27;5.88;;;4.30;;
19951;SDS011;10137;49.406;19.484;2023-08-17T09:04:56;7.65;;;4.20;;
19951;SDS011;10137;49.406;19.484;2023-08-17T09:07:25;5.15;;;3.92;;
19951;SDS011;10137;49.406;19.484;2023-08-17T09:09:56;6.85;;;5.00;;
19951;SDS011;10137;49.406;19.484;2023-08-17T09:12:27;7.97;;;4.80;;
19951;SDS011;10137;49.406;19.484;2023-08-17T09:14:55;7.97;;;4.60;;
19951;SDS011;10137;49.406;19.484;2023-08-17T09:17:25;5.18;;;4.65;;
19951;SDS011;10137;49.406;19.484;2023-08-17T09:19:54;5.88;;;5.28;;
19951;SDS011;10137;49.406;19.484;2023-08-17T09:22:25;6.07;;;4.78;;
19951;SDS011;10137;49.406;19.484;2023-08-17T09:25:11;7.53;;;4.93;;
19951;SDS011;10137;49.406;19.484;2023-08-17T09:28:09;11.50;;;5.05;;
19951;SDS011;10137;49.406;19.484;2023-08-17T09:30:56;14.38;;;5.25;;
19951;SDS011;10137;49.406;19.484;2023-08-17T09:33:51;12.98;;;4.75;;
19951;SDS011;10137;49.406;19.484;2023-08-17T09:37:05;11.23;;;3.47;;
19951;SDS011;10137;49.406;19.484;2023-08-17T09:40:21;9.60;;;3.83;;
19951;SDS011;10137;49.406;19.484;2023-08-17T09:43:25;7.90;;;3.90;;
19951;SDS011;10137;49.406;19.484;2023-08-17T09:45:58;8.45;;;3.92;;
19951;SDS011;10137;49.406;19.484;2023-08-17T09:48:27;9.05;;;4.18;;
19951;SDS011;10137;49.406;19.484;2023-08-17T09:50:55;7.47;;;3.95;;
19951;SDS011;10137;49.406;19.484;2023-08-17T09:53:28;7.10;;;4.38;;
19951;SDS011;10137;49.406;19.484;2023-08-17T09:55:56;9.15;;;4.40;;
19951;SDS011;10137;49.406;19.484;2023-08-17T09:58:26;8.43;;;3.90;;
19951;SDS011;10137;49.406;19.484;2023-08-17T10:00:54;8.65;;;4.68;;
19951;SDS011;10137;49.406;19.484;2023-08-17T10:03:25;11.20;;;4.70;;
19951;SDS011;10137;49.406;19.484;2023-08-17T10:05:58;7.07;;;4.75;;
19951;SDS011;10137;49.406;19.484;2023-08-17T10:08:38;6.30;;;4.22;;
19951;SDS011;10137;49.406;19.484;2023-08-17T10:11:08;7.07;;;4.45;;
19951;SDS011;10137;49.406;19.484;2023-08-17T10:13:42;5.97;;;3.53;;
19951;SDS011;10137;49.406;19.484;2023-08-17T10:16:16;7.63;;;4.00;;
19951;SDS011;10137;49.406;19.484;2023-08-17T10:18:53;8.48;;;4.03;;
19951;SDS011;10137;49.406;19.484;2023-08-17T10:21:28;7.32;;;3.72;;
19951;SDS011;10137;49.406;19.484;2023-08-17T10:23:59;6.85;;;3.70;;
19951;SDS011;10137;49.406;19.484;2023-08-17T10:26:26;6.80;;;4.10;;
19951;SDS011;10137;49.406;19.484;2023-08-17T10:28:54;6.43;;;3.90;;
19951;SDS011;10137;49.406;19.484;2023-08-17T10:31:29;7.22;;;4.03;;
19951;SDS011;10137;49.406;19.484;2023-08-17T10:33:59;7.00;;;4.10;;
19951;SDS011;10137;49.406;19.484;2023-08-17T10:36:31;5.53;;;3.80;;
19951;SDS011;10137;49.406;19.484;2023-08-17T10:39:19;7.28;;;4.50;;
19951;SDS011;10137;49.406;19.484;2023-08-17T10:41:49;7.20;;;3.83;;
19951;SDS011;10137;49.406;19.484;2023-08-17T10:44:18;8.60;;;4.07;;
19951;SDS011;10137;49.406;19.484;2023-08-17T10:47:22;4.97;;;4.00;;
19951;SDS011;10137;49.406;19.484;2023-08-17T10:49:58;10.20;;;4.70;;
19951;SDS011;10137;49.406;19.484;2023-08-17T10:52:26;6.05;;;4.35;;
19951;SDS011;10137;49.406;19.484;2023-08-17T10:55:05;6.82;;;4.38;;
19951;SDS011;10137;49.406;19.484;2023-08-17T10:57:37;6.95;;;4.13;;
19951;SDS011;10137;49.406;19.484;2023-08-17T11:00:18;5.15;;;3.92;;
19951;SDS011;10137;49.406;19.484;2023-08-17T11:02:57;5.63;;;4.10;;
19951;SDS011;10137;49.406;19.484;2023-08-17T11:05:38;6.10;;;4.25;;
19951;SDS011;10137;49.406;19.484;2023-08-17T11:08:09;8.15;;;4.43;;
19951;SDS011;10137;49.406;19.484;2023-08-17T11:10:41;10.02;;;4.68;;
19951;SDS011;10137;49.406;19.484;2023-08-17T11:13:14;5.38;;;4.10;;
19951;SDS011;10137;49.406;19.484;2023-08-17T11:15:42;5.85;;;3.90;;
19951;SDS011;10137;49.406;19.484;2023-08-17T11:18:14;7.15;;;4.05;;
19951;SDS011;10137;49.406;19.484;2023-08-17T11:20:44;5.30;;;3.65;;
19951;SDS011;10137;49.406;19.484;2023-08-17T11:23:20;5.43;;;3.25;;
19951;SDS011;10137;49.406;19.484;2023-08-17T11:25:52;6.60;;;3.60;;
19951;SDS011;10137;49.406;19.484;2023-08-17T11:28:21;5.75;;;3.53;;
19951;SDS011;10137;49.406;19.484;2023-08-17T11:30:56;6.75;;;3.80;;
19951;SDS011;10137;49.406;19.484;2023-08-17T11:33:25;4.47;;;3.47;;
19951;SDS011;10137;49.406;19.484;2023-08-17T11:35:55;4.50;;;2.33;;
19951;SDS011;10137;49.406;19.484;2023-08-17T11:38:24;2.10;;;1.90;;
19951;SDS011;10137;49.406;19.484;2023-08-17T11:40:57;4.28;;;2.10;;
19951;SDS011;10137;49.406;19.484;2023-08-17T11:43:27;1.88;;;1.52;;
19951;SDS011;10137;49.406;19.484;2023-08-17T11:45:56;2.38;;;1.67;;
19951;SDS011;10137;49.406;19.484;2023-08-17T11:48:38;4.68;;;2.00;;
19951;SDS011;10137;49.406;19.484;2023-08-17T11:51:08;5.13;;;2.53;;
19951;SDS011;10137;49.406;19.484;2023-08-17T11:53:38;6.43;;;2.60;;
19951;SDS011;10137;49.406;19.484;2023-08-17T11:56:09;3.40;;;2.75;;
19951;SDS011;10137;49.406;19.484;2023-08-17T11:58:39;2.75;;;2.17;;
19951;SDS011;10137;49.406;19.484;2023-08-17T12:01:10;5.55;;;2.70;;
19951;SDS011;10137;49.406;19.484;2023-08-17T12:03:38;5.72;;;2.80;;
19951;SDS011;10137;49.406;19.484;2023-08-17T12:06:06;4.50;;;2.92;;
19951;SDS011;10137;49.406;19.484;2023-08-17T12:08:34;5.43;;;3.35;;
19951;SDS011;10137;49.406;19.484;2023-08-17T12:11:02;7.15;;;4.10;;
19951;SDS011;10137;49.406;19.484;2023-08-17T12:13:30;4.90;;;3.15;;
19951;SDS011;10137;49.406;19.484;2023-08-17T12:15:59;5.53;;;3.28;;
19951;SDS011;10137;49.406;19.484;2023-08-17T12:18:32;6.10;;;3.90;;
19951;SDS011;10137;49.406;19.484;2023-08-17T12:21:05;5.00;;;2.92;;
19951;SDS011;10137;49.406;19.484;2023-08-17T12:23:35;5.07;;;3.03;;
19951;SDS011;10137;49.406;19.484;2023-08-17T12:26:04;4.60;;;3.45;;
19951;SDS011;10137;49.406;19.484;2023-08-17T12:28:32;4.55;;;3.35;;
19951;SDS011;10137;49.406;19.484;2023-08-17T12:31:00;7.35;;;3.60;;
19951;SDS011;10137;49.406;19.484;2023-08-17T12:33:29;6.03;;;3.30;;
19951;SDS011;10137;49.406;19.484;2023-08-17T12:35:57;3.65;;;2.70;;
19951;SDS011;10137;49.406;19.484;2023-08-17T12:38:31;3.05;;;2.70;;
19951;SDS011;10137;49.406;19.484;2023-08-17T12:41:04;3.67;;;2.80;;
19951;SDS011;10137;49.406;19.484;2023-08-17T12:43:32;5.15;;;3.33;;
19951;SDS011;10137;49.406;19.484;2023-08-17T12:46:03;4.40;;;3.10;;
19951;SDS011;10137;49.406;19.484;2023-08-17T12:48:30;5.90;;;3.63;;
19951;SDS011;10137;49.406;19.484;2023-08-17T12:50:57;6.35;;;3.55;;
19951;SDS011;10137;49.406;19.484;2023-08-17T12:53:25;4.00;;;3.00;;
19951;SDS011;10137;49.406;19.484;2023-08-17T12:55:54;4.70;;;3.05;;
19951;SDS011;10137;49.406;19.484;2023-08-17T12:58:22;6.85;;;3.50;;
19951;SDS011;10137;49.406;19.484;2023-08-17T13:00:51;4.65;;;3.17;;
19951;SDS011;10137;49.406;19.484;2023-08-17T13:03:20;4.72;;;2.88;;
19951;SDS011;10137;49.406;19.484;2023-08-17T13:05:48;5.80;;;3.33;;
19951;SDS011;10137;49.406;19.484;2023-08-17T13:08:17;6.10;;;2.85;;
19951;SDS011;10137;49.406;19.484;2023-08-17T13:10:48;6.35;;;3.40;;
19951;SDS011;10137;49.406;19.484;2023-08-17T13:13:16;4.20;;;2.92;;
19951;SDS011;10137;49.406;19.484;2023-08-17T13:15:44;4.57;;;2.75;;
19951;SDS011;10137;49.406;19.484;2023-08-17T13:18:13;6.43;;;3.22;;
19951;SDS011;10137;49.406;19.484;2023-08-17T13:20:41;6.20;;;3.40;;
19951;SDS011;10137;49.406;19.484;2023-08-17T13:23:12;3.95;;;3.17;;
19951;SDS011;10137;49.406;19.484;2023-08-17T13:25:41;5.80;;;3.17;;
19951;SDS011;10137;49.406;19.484;2023-08-17T13:28:11;6.22;;;3.10;;
19951;SDS011;10137;49.406;19.484;2023-08-17T13:30:39;4.75;;;3.10;;
19951;SDS011;10137;49.406;19.484;2023-08-17T13:33:06;4.40;;;3.00;;
19951;SDS011;10137;49.406;19.484;2023-08-17T13:35:33;4.55;;;3.47;;
19951;SDS011;10137;49.406;19.484;2023-08-17T13:38:01;4.57;;;3.40;;
19951;SDS011;10137;49.406;19.484;2023-08-17T13:40:29;7.35;;;3.45;;
19951;SDS011;10137;49.406;19.484;2023-08-17T13:42:56;7.13;;;3.50;;
19951;SDS011;10137;49.406;19.484;2023-08-17T13:45:26;6.55;;;4.10;;
19951;SDS011;10137;49.406;19.484;2023-08-17T13:47:56;6.65;;;3.97;;
19951;SDS011;10137;49.406;19.484;2023-08-17T13:50:24;7.38;;;4.35;;
19951;SDS011;10137;49.406;19.484;2023-08-17T13:52:51;5.28;;;3.95;;
19951;SDS011;10137;49.406;19.484;2023-08-17T13:55:18;4.57;;;3.25;;
19951;SDS011;10137;49.406;19.484;2023-08-17T13:57:45;6.85;;;2.95;;
19951;SDS011;10137;49.406;19.484;2023-08-17T14:00:12;4.22;;;2.75;;
19951;SDS011;10137;49.406;19.484;2023-08-17T14:02:41;6.90;;;2.97;;
19951;SDS011;10137;49.406;19.484;2023-08-17T14:05:08;5.03;;;2.42;;
19951;SDS011;10137;49.406;19.484;2023-08-17T14:07:36;2.78;;;2.42;;
19951;SDS011;10137;49.406;19.484;2023-08-17T14:10:03;4.80;;;2.40;;
19951;SDS011;10137;49.406;19.484;2023-08-17T14:12:31;3.03;;;2.00;;
19951;SDS011;10137;49.406;19.484;2023-08-17T14:14:59;4.95;;;2.53;;
19951;SDS011;10137;49.406;19.484;2023-08-17T14:17:26;4.82;;;2.58;;
19951;SDS011;10137;49.406;19.484;2023-08-17T14:19:54;2.38;;;1.85;;
19951;SDS011;10137;49.406;19.484;2023-08-17T14:22:21;2.53;;;2.03;;
19951;SDS011;10137;49.406;19.484;2023-08-17T14:24:48;2.53;;;1.80;;
19951;SDS011;10137;49.406;19.484;2023-08-17T14:27:15;6.25;;;2.33;;
19951;SDS011;10137;49.406;19.484;2023-08-17T14:29:42;4.60;;;2.30;;
19951;SDS011;10137;49.406;19.484;2023-08-17T14:32:09;5.75;;;2.40;;
19951;SDS011;10137;49.406;19.484;2023-08-17T14:34:38;3.67;;;2.53;;
19951;SDS011;10137;49.406;19.484;2023-08-17T14:37:08;2.70;;;2.22;;
19951;SDS011;10137;49.406;19.484;2023-08-17T14:39:35;4.03;;;2.33;;
19951;SDS011;10137;49.406;19.484;2023-08-17T14:42:02;3.17;;;2.53;;
19951;SDS011;10137;49.406;19.484;2023-08-17T14:44:29;5.25;;;2.92;;
19951;SDS011;10137;49.406;19.484;2023-08-17T14:46:57;2.83;;;2.50;;